createdAt,value
2022-10-15T00:01:39.413Z,100.00
2022-10-15T00:04:08.370Z,100.00
2022-10-15T00:06:35.960Z,99.97
2022-10-15T00:09:03.725Z,100.00
2022-10-15T00:11:31.609Z,100.00
2022-10-15T00:14:00.553Z,100.00
2022-10-15T00:16:29.431Z,100.00
2022-10-15T00:18:57.668Z,100.00
2022-10-15T00:21:26.729Z,100.00
2022-10-15T00:23:54.448Z,100.00
2022-10-15T00:26:24.022Z,99.99
2022-10-15T00:28:53.404Z,99.81
2022-10-15T00:31:23.089Z,100.00
2022-10-15T00:33:51.210Z,100.00
2022-10-15T00:36:20.483Z,99.86
2022-10-15T00:38:49.565Z,99.66
2022-10-15T00:41:20.713Z,99.73
2022-10-15T00:43:50.371Z,99.73
2022-10-15T00:46:21.880Z,99.53
2022-10-15T00:48:51.622Z,99.80
2022-10-15T00:51:20.492Z,100.00
2022-10-15T00:53:49.930Z,99.59
2022-10-15T00:56:19.052Z,99.42
2022-10-15T00:58:46.577Z,99.72
2022-10-15T01:01:14.267Z,99.70
2022-10-15T01:03:42.370Z,99.85
2022-10-15T01:06:09.860Z,99.45
2022-10-15T01:08:37.444Z,99.23
2022-10-15T01:11:14.432Z,99.78
2022-10-15T01:13:50.820Z,99.38
2022-10-15T01:16:21.634Z,99.33
2022-10-15T01:18:55.010Z,99.87
2022-10-15T01:21:24.178Z,99.72
2022-10-15T01:24:37.340Z,99.55
2022-10-15T01:27:20.098Z,99.92
2022-10-15T01:30:15.636Z,100.00
2022-10-15T01:32:49.498Z,100.00
2022-10-15T01:35:23.657Z,100.00
2022-10-15T01:37:55.231Z,100.00
2022-10-15T01:40:27.376Z,100.00
2022-10-15T01:42:57.882Z,99.94
2022-10-15T01:45:30.508Z,100.00
2022-10-15T01:48:01.019Z,100.00
2022-10-15T01:50:29.563Z,100.00
2022-10-15T01:52:58.345Z,100.00
2022-10-15T01:55:26.654Z,100.00
2022-10-15T01:57:56.475Z,100.00
2022-10-15T02:00:23.955Z,100.00
2022-10-15T02:02:51.462Z,99.90
2022-10-15T02:05:23.291Z,100.00
2022-10-15T02:07:56.464Z,100.00
2022-10-15T02:10:29.768Z,100.00
2022-10-15T02:13:03.721Z,99.59
2022-10-15T02:15:36.553Z,100.00
2022-10-15T02:18:07.978Z,100.00
2022-10-15T02:20:41.459Z,100.00
2022-10-15T02:23:11.815Z,99.74
2022-10-15T02:25:40.426Z,99.59
2022-10-15T02:28:09.116Z,99.91
2022-10-15T02:30:38.644Z,100.00
2022-10-15T02:33:06.149Z,100.00
2022-10-15T02:35:34.107Z,100.00
2022-10-15T02:38:05.541Z,99.88
2022-10-15T02:40:34.693Z,99.70
2022-10-15T02:43:06.009Z,99.60
2022-10-15T02:45:33.683Z,99.26
2022-10-15T02:48:01.211Z,99.24
2022-10-15T02:50:28.732Z,99.32
2022-10-15T02:52:56.263Z,98.87
2022-10-15T02:55:25.085Z,98.87
2022-10-15T02:57:52.555Z,98.88
2022-10-15T03:00:20.058Z,99.05
2022-10-15T03:02:47.541Z,98.85
2022-10-15T03:05:15.356Z,98.98
2022-10-15T03:07:42.806Z,98.89
2022-10-15T03:10:10.436Z,99.55
2022-10-15T03:12:39.204Z,99.32
2022-10-15T03:15:07.846Z,99.46
2022-10-15T03:17:35.308Z,99.97
2022-10-15T03:20:02.770Z,99.55
2022-10-15T03:22:30.245Z,99.84
2022-10-15T03:24:57.886Z,100.00
2022-10-15T03:27:25.807Z,100.00
2022-10-15T03:29:54.784Z,100.00
2022-10-15T03:32:22.264Z,100.00
2022-10-15T03:34:49.755Z,100.00
2022-10-15T03:37:17.228Z,100.00
2022-10-15T03:39:44.686Z,100.00
2022-10-15T03:42:12.130Z,99.80
2022-10-15T03:44:39.623Z,99.81
2022-10-15T03:47:08.445Z,100.00
2022-10-15T03:49:35.904Z,100.00
2022-10-15T03:52:03.871Z,99.88
2022-10-15T03:54:31.434Z,99.82
2022-10-15T03:56:59.706Z,100.00
2022-10-15T03:59:27.512Z,99.91
2022-10-15T04:01:54.931Z,99.94
2022-10-15T04:04:23.777Z,100.00
2022-10-15T04:06:51.244Z,100.00
2022-10-15T04:09:18.729Z,100.00
2022-10-15T04:11:46.163Z,100.00
2022-10-15T04:14:13.637Z,100.00
2022-10-15T04:16:41.112Z,99.92
2022-10-15T04:19:11.004Z,100.00
2022-10-15T04:21:40.297Z,100.00
2022-10-15T04:24:07.873Z,99.93
2022-10-15T04:26:35.535Z,99.84
2022-10-15T04:29:03.020Z,100.00
2022-10-15T04:31:30.605Z,99.67
2022-10-15T04:33:58.063Z,100.00
2022-10-15T04:36:25.547Z,100.00
2022-10-15T04:38:54.679Z,100.00
2022-10-15T04:41:22.292Z,99.94
2022-10-15T04:43:49.771Z,99.78
2022-10-15T04:46:17.387Z,99.64
2022-10-15T04:48:45.119Z,99.56
2022-10-15T04:51:14.091Z,99.65
2022-10-15T04:53:41.661Z,100.00
2022-10-15T04:56:13.700Z,100.00
2022-10-15T04:58:41.155Z,100.00
2022-10-15T05:01:11.999Z,100.00
2022-10-15T05:03:43.992Z,100.00
2022-10-15T05:06:15.105Z,100.00
2022-10-15T05:08:43.313Z,99.46
2022-10-15T05:11:14.540Z,99.53
2022-10-15T05:13:42.197Z,98.66
2022-10-15T05:16:11.094Z,99.34
2022-10-15T05:18:39.315Z,99.58
2022-10-15T05:21:07.115Z,99.49
2022-10-15T05:23:34.800Z,100.00
2022-10-15T05:26:02.931Z,100.00
2022-10-15T05:28:32.180Z,99.99
2022-10-15T05:31:04.925Z,100.00
2022-10-15T05:33:32.833Z,100.00
2022-10-15T05:36:09.309Z,100.00
2022-10-15T05:38:36.766Z,100.00
2022-10-15T05:41:04.458Z,100.00
2022-10-15T05:43:36.082Z,100.00
2022-10-15T05:46:06.509Z,99.96
2022-10-15T05:48:33.988Z,100.00
2022-10-15T05:51:02.318Z,100.00
2022-10-15T05:53:29.875Z,100.00
2022-10-15T05:55:58.601Z,100.00
2022-10-15T05:58:26.102Z,99.63
2022-10-15T06:00:58.445Z,100.00
2022-10-15T06:03:26.363Z,100.00
2022-10-15T06:05:54.020Z,100.00
2022-10-15T06:08:21.864Z,100.00
2022-10-15T06:10:49.900Z,99.37
2022-10-15T06:13:17.727Z,99.38
2022-10-15T06:15:46.692Z,98.69
2022-10-15T06:18:16.340Z,99.11
2022-10-15T06:20:44.234Z,99.45
2022-10-15T06:23:12.966Z,99.27
2022-10-15T06:25:40.486Z,99.39
2022-10-15T06:28:09.522Z,99.87
2022-10-15T06:30:36.975Z,99.48
2022-10-15T06:33:04.583Z,99.36
2022-10-15T06:35:35.251Z,100.00
2022-10-15T06:38:03.455Z,99.62
2022-10-15T06:40:31.297Z,99.76
2022-10-15T06:43:04.951Z,99.74
2022-10-15T06:45:32.416Z,100.00
2022-10-15T06:47:59.868Z,100.00
2022-10-15T06:50:27.441Z,100.00
2022-10-15T06:52:56.262Z,99.77
2022-10-15T06:55:23.813Z,99.72
2022-10-15T06:57:51.342Z,99.85
2022-10-15T07:00:19.079Z,100.00
2022-10-15T07:02:46.586Z,99.53
2022-10-15T07:05:14.148Z,99.49
2022-10-15T07:07:41.756Z,99.52
2022-10-15T07:10:11.071Z,99.63
2022-10-15T07:12:38.611Z,99.50
2022-10-15T07:15:07.403Z,99.66
2022-10-15T07:17:35.227Z,99.57
2022-10-15T07:20:02.695Z,99.46
2022-10-15T07:22:30.167Z,99.32
2022-10-15T07:24:57.691Z,99.03
2022-10-15T07:27:26.527Z,99.07
2022-10-15T07:29:53.982Z,99.08
2022-10-15T07:32:21.690Z,99.00
2022-10-15T07:34:49.691Z,98.66
2022-10-15T07:37:17.245Z,98.56
2022-10-15T07:39:44.960Z,98.45
2022-10-15T07:44:46.276Z,98.46
2022-10-15T07:47:13.898Z,98.48
2022-10-15T07:49:41.365Z,98.82
2022-10-15T07:52:09.347Z,98.70
2022-10-15T07:54:37.165Z,99.28
2022-10-15T07:57:06.882Z,99.03
2022-10-15T07:59:34.448Z,99.03
2022-10-15T08:02:03.301Z,99.21
2022-10-15T08:04:30.864Z,98.64
2022-10-15T08:06:58.444Z,98.90
2022-10-15T08:09:26.493Z,99.34
2022-10-15T08:11:53.965Z,99.26
2022-10-15T08:14:21.437Z,98.96
2022-10-15T08:16:48.884Z,98.81
2022-10-15T08:19:18.280Z,98.94
2022-10-15T08:21:47.491Z,99.33
2022-10-15T08:24:15.353Z,99.57
2022-10-15T08:26:43.007Z,99.71
2022-10-15T08:29:11.022Z,99.29
2022-10-15T08:31:38.570Z,99.31
2022-10-15T08:34:06.277Z,99.40
2022-10-15T08:36:35.119Z,98.77
2022-10-15T08:39:02.703Z,98.94
2022-10-15T08:41:34.028Z,98.47
2022-10-15T08:44:01.957Z,98.40
2022-10-15T08:46:35.013Z,98.56
2022-10-15T08:49:02.921Z,98.94
2022-10-15T08:51:38.600Z,98.86
2022-10-15T08:54:07.315Z,98.71
2022-10-15T08:56:37.560Z,98.04
2022-10-15T08:59:11.612Z,98.50
2022-10-15T09:01:45.749Z,98.33
2022-10-15T09:04:20.519Z,98.31
2022-10-15T09:06:49.972Z,97.85
2022-10-15T09:09:20.614Z,98.60
2022-10-15T09:11:57.280Z,98.52
2022-10-15T09:14:30.679Z,98.75
2022-10-15T09:17:01.141Z,98.77
2022-10-15T09:19:30.135Z,98.16
2022-10-15T09:22:02.084Z,97.85
2022-10-15T09:24:31.057Z,97.56
2022-10-15T09:27:06.641Z,97.96
2022-10-15T09:29:40.613Z,96.07
2022-10-15T09:32:17.092Z,96.39
2022-10-15T09:34:49.275Z,95.97
2022-10-15T09:37:22.335Z,96.16
2022-10-15T09:40:08.084Z,95.29
2022-10-15T09:42:37.493Z,95.44
2022-10-15T09:45:07.876Z,94.61
2022-10-15T09:47:36.928Z,93.46
2022-10-15T09:50:06.596Z,93.36
2022-10-15T09:52:48.610Z,94.27
2022-10-15T09:55:29.721Z,94.70
2022-10-15T09:57:59.467Z,95.02
2022-10-15T10:00:26.933Z,94.52
2022-10-15T10:03:06.948Z,94.07
2022-10-15T10:05:38.862Z,93.27
2022-10-15T10:08:11.898Z,92.89
2022-10-15T10:10:41.781Z,92.34
2022-10-15T10:13:23.382Z,92.28
2022-10-15T10:15:57.491Z,91.04
2022-10-15T10:18:27.124Z,90.95
2022-10-15T10:20:58.772Z,91.61
2022-10-15T10:23:31.881Z,90.59
2022-10-15T10:26:00.247Z,92.06
2022-10-15T10:28:31.510Z,92.03
2022-10-15T10:31:05.071Z,93.02
2022-10-15T10:33:36.314Z,92.36
2022-10-15T10:36:05.012Z,92.76
2022-10-15T10:38:35.686Z,93.13
2022-10-15T10:41:07.660Z,93.28
2022-10-15T10:43:39.157Z,93.18
2022-10-15T10:46:17.537Z,93.44
2022-10-15T10:48:46.423Z,92.79
2022-10-15T10:51:18.402Z,93.21
2022-10-15T10:53:54.179Z,94.26
2022-10-15T10:56:24.693Z,93.48
2022-10-15T10:58:58.523Z,94.21
2022-10-15T11:01:26.035Z,94.38
2022-10-15T11:03:53.628Z,94.46
2022-10-15T11:06:45.190Z,94.21
2022-10-15T11:09:36.981Z,94.82
2022-10-15T11:12:15.434Z,94.19
2022-10-15T11:14:49.956Z,92.72
2022-10-15T11:17:23.319Z,93.86
2022-10-15T11:20:13.164Z,93.76
2022-10-15T11:22:52.109Z,93.37
2022-10-15T11:25:26.401Z,92.98
2022-10-15T11:28:03.852Z,92.35
2022-10-15T11:30:39.739Z,91.88
2022-10-15T11:33:17.568Z,90.97
2022-10-15T11:35:54.415Z,90.68
2022-10-15T11:38:27.931Z,90.54
2022-10-15T11:41:06.799Z,90.31
2022-10-15T11:43:48.081Z,91.11
2022-10-15T11:46:21.314Z,91.10
2022-10-15T11:48:58.410Z,91.90
2022-10-15T11:51:33.069Z,91.95
2022-10-15T11:54:18.620Z,91.40
2022-10-15T11:56:48.793Z,91.49
2022-10-15T11:59:26.917Z,91.34
2022-10-15T12:01:57.614Z,91.44
2022-10-15T12:04:32.731Z,91.85
2022-10-15T12:07:03.022Z,92.34
2022-10-15T12:09:33.490Z,92.34
2022-10-15T12:12:06.691Z,91.96
2022-10-15T12:14:40.921Z,92.42
2022-10-15T12:17:15.205Z,92.95
2022-10-15T12:19:46.493Z,92.67
2022-10-15T12:22:13.985Z,92.80
2022-10-15T12:24:56.204Z,93.59
2022-10-15T12:27:35.712Z,93.52
2022-10-15T12:30:20.292Z,92.66
2022-10-15T12:32:48.805Z,93.59
2022-10-15T12:37:55.080Z,94.15
2022-10-15T12:40:28.593Z,93.95
2022-10-15T12:42:58.979Z,93.26
2022-10-15T12:45:40.207Z,93.34
2022-10-15T12:48:19.766Z,93.28
2022-10-15T12:50:47.257Z,93.52
2022-10-15T12:53:32.975Z,93.51
2022-10-15T12:56:14.524Z,93.40
2022-10-15T12:58:48.039Z,93.51
2022-10-15T13:01:30.978Z,93.95
2022-10-15T13:04:00.145Z,92.88
2022-10-15T13:06:40.099Z,94.06
2022-10-15T13:09:22.491Z,94.34
2022-10-15T13:14:34.051Z,94.42
2022-10-15T13:17:05.094Z,94.72
2022-10-15T13:19:36.121Z,95.17
2022-10-15T13:22:05.450Z,94.96
2022-10-15T13:24:41.739Z,94.42
2022-10-15T13:27:15.616Z,94.45
2022-10-15T13:29:59.159Z,94.64
2022-10-15T13:32:27.605Z,94.57
2022-10-15T13:34:56.158Z,94.59
2022-10-15T13:37:31.270Z,94.44
2022-10-15T13:40:01.799Z,94.89
2022-10-15T13:42:33.918Z,94.65
2022-10-15T13:45:05.145Z,94.68
2022-10-15T13:47:35.238Z,94.40
2022-10-15T13:50:17.555Z,94.16
2022-10-15T13:52:47.392Z,93.79
2022-10-15T13:55:19.078Z,93.01
2022-10-15T13:57:47.350Z,90.07
2022-10-15T14:00:24.413Z,89.85
2022-10-15T14:03:14.857Z,88.55
2022-10-15T14:05:42.701Z,89.12
2022-10-15T14:08:22.630Z,88.74
2022-10-15T14:10:51.091Z,89.11
2022-10-15T14:13:18.615Z,88.39
2022-10-15T14:15:52.190Z,87.92
2022-10-15T14:18:29.243Z,87.80
2022-10-15T14:20:56.784Z,87.87
2022-10-15T14:23:25.566Z,87.97
2022-10-15T14:25:54.667Z,87.80
2022-10-15T14:28:23.756Z,88.11
2022-10-15T14:30:52.972Z,87.67
2022-10-15T14:33:31.947Z,87.81
2022-10-15T14:36:08.809Z,88.39
2022-10-15T14:38:36.750Z,88.16
2022-10-15T14:41:09.139Z,88.53
2022-10-15T14:43:38.387Z,88.26
2022-10-15T14:46:08.747Z,88.35
2022-10-15T14:48:37.798Z,88.47
2022-10-15T14:51:07.315Z,88.53
2022-10-15T14:53:37.772Z,88.71
2022-10-15T14:56:08.042Z,88.62
2022-10-15T14:58:35.714Z,88.63
2022-10-15T15:01:04.708Z,88.98
2022-10-15T15:03:41.789Z,88.82
2022-10-15T15:06:09.866Z,87.75
2022-10-15T15:08:37.347Z,88.12
2022-10-15T15:11:06.702Z,88.17
2022-10-15T15:13:41.866Z,88.19
2022-10-15T15:16:10.644Z,88.25
2022-10-15T15:18:39.701Z,88.15
2022-10-15T15:21:08.799Z,88.42
2022-10-15T15:23:36.547Z,87.70
2022-10-15T15:26:05.751Z,87.55
2022-10-15T15:28:33.425Z,87.64
2022-10-15T15:31:03.074Z,87.56
2022-10-15T15:33:30.614Z,87.77
2022-10-15T15:36:05.025Z,88.05
2022-10-15T15:38:32.662Z,88.22
2022-10-15T15:41:03.283Z,88.26
2022-10-15T15:43:31.229Z,88.57
2022-10-15T15:45:59.128Z,88.64
2022-10-15T15:48:26.851Z,88.57
2022-10-15T15:50:54.484Z,88.32
2022-10-15T15:53:23.416Z,87.71
2022-10-15T15:55:51.004Z,88.18
2022-10-15T15:58:18.634Z,88.07
2022-10-15T16:00:46.207Z,88.05
2022-10-15T16:03:14.418Z,88.04
2022-10-15T16:05:42.527Z,88.21
2022-10-15T16:08:11.934Z,88.42
2022-10-15T16:10:40.908Z,88.34
2022-10-15T16:13:08.706Z,88.87
2022-10-15T16:15:36.264Z,88.92
2022-10-15T16:18:03.936Z,88.74
2022-10-15T16:20:35.818Z,88.52
2022-10-15T16:23:03.497Z,89.10
2022-10-15T16:25:31.115Z,88.77
2022-10-15T16:28:01.796Z,88.94
2022-10-15T16:30:29.600Z,89.41
2022-10-15T16:32:57.316Z,89.38
2022-10-15T16:35:25.019Z,89.23
2022-10-15T16:37:53.992Z,89.37
2022-10-15T16:40:21.573Z,89.96
2022-10-15T16:42:49.137Z,90.67
2022-10-15T16:45:18.394Z,90.65
2022-10-15T16:47:45.964Z,90.84
2022-10-15T16:50:13.581Z,91.29
2022-10-15T16:52:41.189Z,91.31
2022-10-15T16:55:09.706Z,91.34
2022-10-15T16:57:37.381Z,91.67
2022-10-15T17:00:05.726Z,91.49
2022-10-15T17:02:34.680Z,91.75
2022-10-15T17:05:02.408Z,92.29
2022-10-15T17:07:30.098Z,92.37
2022-10-15T17:09:57.789Z,92.00
2022-10-15T17:12:25.769Z,91.99
2022-10-15T17:14:53.702Z,92.25
2022-10-15T17:17:21.256Z,92.67
2022-10-15T17:19:50.239Z,92.82
2022-10-15T17:22:17.837Z,92.65
2022-10-15T17:24:45.562Z,92.32
2022-10-15T17:27:13.237Z,92.60
2022-10-15T17:29:40.815Z,92.22
2022-10-15T17:32:08.422Z,92.30
2022-10-15T17:34:36.021Z,92.77
2022-10-15T17:37:04.955Z,92.72
2022-10-15T17:39:32.506Z,93.13
2022-10-15T17:42:00.144Z,93.10
2022-10-15T17:44:27.911Z,92.86
2022-10-15T17:46:55.646Z,92.91
2022-10-15T17:49:23.211Z,93.35
2022-10-15T17:51:51.477Z,93.66
2022-10-15T17:54:20.427Z,93.74
2022-10-15T17:56:48.524Z,93.65
2022-10-15T17:59:16.218Z,94.02
2022-10-15T18:02:00.746Z,94.19
2022-10-15T18:04:29.117Z,94.41
2022-10-15T18:06:56.724Z,94.63
2022-10-15T18:09:25.803Z,94.71
2022-10-15T18:11:53.362Z,95.37
2022-10-15T18:16:53.912Z,95.18
2022-10-15T18:19:21.947Z,95.43
2022-10-15T18:21:50.002Z,95.48
2022-10-15T18:24:19.946Z,95.51
2022-10-15T18:26:48.982Z,95.35
2022-10-15T18:29:16.648Z,95.62
2022-10-15T18:31:44.366Z,95.24
2022-10-15T18:34:15.347Z,95.16
2022-10-15T18:36:43.827Z,95.42
2022-10-15T18:39:11.782Z,95.59
2022-10-15T18:41:40.209Z,95.32
2022-10-15T18:44:14.746Z,95.05
2022-10-15T18:46:44.716Z,95.14
2022-10-15T18:49:13.323Z,95.04
2022-10-15T18:51:40.833Z,94.59
2022-10-15T18:54:08.746Z,94.45
2022-10-15T18:56:36.505Z,94.38
2022-10-15T18:59:04.373Z,94.59
2022-10-15T19:01:37.255Z,94.96
2022-10-15T19:04:06.768Z,93.97
2022-10-15T19:06:37.286Z,94.34
2022-10-15T19:09:06.552Z,94.80
2022-10-15T19:11:35.231Z,94.82
2022-10-15T19:14:03.590Z,94.81
2022-10-15T19:16:31.199Z,94.53
2022-10-15T19:19:01.131Z,94.59
2022-10-15T19:21:29.054Z,94.55
2022-10-15T19:23:56.787Z,94.74
2022-10-15T19:26:24.456Z,94.37
2022-10-15T19:28:53.419Z,94.45
2022-10-15T19:31:24.299Z,94.88
2022-10-15T19:33:52.134Z,94.64
2022-10-15T19:36:22.175Z,94.75
2022-10-15T19:38:49.804Z,94.81
2022-10-15T19:41:17.444Z,95.02
2022-10-15T19:43:45.264Z,95.07
2022-10-15T19:46:13.116Z,94.43
2022-10-15T19:48:40.898Z,94.65
2022-10-15T19:51:08.767Z,94.83
2022-10-15T19:53:37.801Z,94.27
2022-10-15T19:56:07.619Z,94.34
2022-10-15T19:58:35.950Z,94.81
2022-10-15T20:01:05.346Z,95.19
2022-10-15T20:06:07.649Z,95.48
2022-10-15T20:08:37.036Z,95.33
2022-10-15T20:11:06.856Z,95.17
2022-10-15T20:13:35.115Z,95.59
2022-10-15T20:16:04.625Z,95.34
2022-10-15T20:18:32.742Z,95.29
2022-10-15T20:21:00.384Z,95.22
2022-10-15T20:23:28.525Z,95.51
2022-10-15T20:25:57.478Z,95.84
2022-10-15T20:28:25.501Z,95.60
2022-10-15T20:33:28.047Z,95.44
2022-10-15T20:35:55.734Z,94.97
2022-10-15T20:38:23.466Z,94.88
2022-10-15T20:40:51.153Z,95.30
2022-10-15T20:43:22.199Z,95.81
2022-10-15T20:45:49.689Z,95.51
2022-10-15T20:48:20.686Z,95.73
2022-10-15T20:50:49.320Z,96.10
2022-10-15T20:53:17.190Z,96.28
2022-10-15T20:55:44.864Z,95.75
2022-10-15T20:58:12.466Z,96.20
2022-10-15T21:00:41.540Z,96.34
2022-10-15T21:03:09.142Z,96.21
2022-10-15T21:05:36.684Z,96.00
2022-10-15T21:08:04.840Z,96.39
2022-10-15T21:10:32.713Z,96.34
2022-10-15T21:13:00.285Z,96.16
2022-10-15T21:15:28.032Z,96.15
2022-10-15T21:17:57.193Z,96.10
2022-10-15T21:20:25.667Z,96.48
2022-10-15T21:22:53.437Z,97.02
2022-10-15T21:25:21.311Z,96.81
2022-10-15T21:27:48.839Z,96.58
2022-10-15T21:30:16.839Z,97.23
2022-10-15T21:32:44.605Z,96.96
2022-10-15T21:35:13.750Z,96.96
2022-10-15T21:37:41.325Z,96.53
2022-10-15T21:40:10.608Z,96.61
2022-10-15T21:42:38.278Z,96.51
2022-10-15T21:45:06.546Z,96.30
2022-10-15T21:47:34.112Z,96.10
2022-10-15T21:50:01.659Z,95.49
2022-10-15T21:52:30.809Z,95.72
2022-10-15T21:54:58.364Z,95.78
2022-10-15T21:57:26.383Z,95.35
2022-10-15T21:59:54.139Z,95.26
2022-10-15T22:02:21.675Z,95.42
2022-10-15T22:04:49.234Z,95.13
2022-10-15T22:07:16.743Z,95.04
2022-10-15T22:09:45.693Z,95.24
2022-10-15T22:12:15.522Z,95.69
2022-10-15T22:14:45.432Z,95.49
2022-10-15T22:17:12.982Z,95.22
2022-10-15T22:19:40.745Z,95.50
2022-10-15T22:22:08.462Z,95.27
2022-10-15T22:24:36.112Z,95.27
2022-10-15T22:27:05.041Z,95.18
2022-10-15T22:29:34.490Z,95.37
2022-10-15T22:32:02.836Z,95.58
2022-10-15T22:34:30.337Z,95.14
2022-10-15T22:36:57.829Z,95.48
2022-10-15T22:39:25.311Z,95.50
2022-10-15T22:41:52.770Z,95.84
2022-10-15T22:44:22.277Z,95.92
2022-10-15T22:46:50.442Z,95.65
2022-10-15T22:49:19.479Z,95.48
2022-10-15T22:51:47.289Z,95.30
2022-10-15T22:54:15.756Z,95.09
2022-10-15T22:56:43.383Z,95.48
2022-10-15T22:59:10.955Z,95.47
2022-10-15T23:01:39.863Z,94.96
2022-10-15T23:04:08.005Z,94.98
2022-10-15T23:06:37.087Z,95.31
2022-10-15T23:09:06.690Z,95.49
2022-10-15T23:11:35.386Z,95.13
2022-10-15T23:14:04.916Z,95.48
2022-10-15T23:16:34.502Z,95.49
2022-10-15T23:19:05.397Z,95.18
2022-10-15T23:21:37.247Z,95.74
2022-10-15T23:24:05.888Z,95.65
2022-10-15T23:26:35.595Z,95.61
2022-10-15T23:29:04.535Z,95.33
2022-10-15T23:31:33.772Z,95.74
2022-10-15T23:34:03.430Z,95.33
2022-10-15T23:36:31.678Z,95.59
2022-10-15T23:39:00.720Z,95.81
2022-10-15T23:41:29.362Z,95.75
2022-10-15T23:43:57.233Z,95.82
2022-10-15T23:46:25.049Z,96.27
2022-10-15T23:48:52.764Z,96.69
2022-10-15T23:51:23.742Z,95.82
2022-10-15T23:53:51.959Z,95.95
2022-10-15T23:56:19.689Z,96.00
2022-10-15T23:58:48.945Z,96.63
